sensor_id;sensor_type;location;lat;lon;timestamp;P1;durP1;ratioP1;P2;durP2;ratioP2
4754;SDS011;2391;47.212;7.542;2024-03-25T00:00:58;3.83;;;0.80;;
4754;SDS011;2391;47.212;7.542;2024-03-25T00:03:24;5.33;;;0.70;;
4754;SDS011;2391;47.212;7.542;2024-03-25T00:05:50;1.43;;;0.50;;
4754;SDS011;2391;47.212;7.542;2024-03-25T00:08:16;1.80;;;0.50;;
4754;SDS011;2391;47.212;7.542;2024-03-25T00:10:41;0.50;;;0.50;;
4754;SDS011;2391;47.212;7.542;2024-03-25T00:13:09;0.70;;;0.67;;
4754;SDS011;2391;47.212;7.542;2024-03-25T00:15:36;1.77;;;0.50;;
4754;SDS011;2391;47.212;7.542;2024-03-25T00:18:10;2.50;;;0.67;;
4754;SDS011;2391;47.212;7.542;2024-03-25T00:20:35;0.87;;;0.57;;
4754;SDS011;2391;47.212;7.542;2024-03-25T00:23:01;0.70;;;0.50;;
4754;SDS011;2391;47.212;7.542;2024-03-25T00:25:27;1.07;;;0.70;;
4754;SDS011;2391;47.212;7.542;2024-03-25T00:27:54;0.60;;;0.60;;
4754;SDS011;2391;47.212;7.542;2024-03-25T00:30:20;0.90;;;0.57;;
4754;SDS011;2391;47.212;7.542;2024-03-25T00:32:46;1.03;;;0.70;;
4754;SDS011;2391;47.212;7.542;2024-03-25T00:35:11;3.30;;;0.90;;
4754;SDS011;2391;47.212;7.542;2024-03-25T00:37:37;1.83;;;1.00;;
4754;SDS011;2391;47.212;7.542;2024-03-25T00:40:04;1.23;;;0.60;;
4754;SDS011;2391;47.212;7.542;2024-03-25T00:42:33;0.60;;;0.60;;
4754;SDS011;2391;47.212;7.542;2024-03-25T00:44:59;0.70;;;0.57;;
4754;SDS011;2391;47.212;7.542;2024-03-25T00:47:25;0.50;;;0.50;;
4754;SDS011;2391;47.212;7.542;2024-03-25T00:49:51;2.20;;;0.70;;
4754;SDS011;2391;47.212;7.542;2024-03-25T00:52:17;0.70;;;0.50;;
4754;SDS011;2391;47.212;7.542;2024-03-25T00:54:43;2.23;;;0.73;;
4754;SDS011;2391;47.212;7.542;2024-03-25T00:57:08;0.83;;;0.50;;
4754;SDS011;2391;47.212;7.542;2024-03-25T00:59:36;1.00;;;0.70;;
4754;SDS011;2391;47.212;7.542;2024-03-25T01:02:02;1.83;;;0.80;;
4754;SDS011;2391;47.212;7.542;2024-03-25T01:04:28;0.50;;;0.50;;
4754;SDS011;2391;47.212;7.542;2024-03-25T01:06:57;1.30;;;0.60;;
4754;SDS011;2391;47.212;7.542;2024-03-25T01:09:22;4.33;;;0.70;;
4754;SDS011;2391;47.212;7.542;2024-03-25T01:11:51;1.07;;;0.60;;
4754;SDS011;2391;47.212;7.542;2024-03-25T01:14:17;0.53;;;0.53;;
4754;SDS011;2391;47.212;7.542;2024-03-25T01:16:45;2.23;;;0.80;;
4754;SDS011;2391;47.212;7.542;2024-03-25T01:19:10;0.60;;;0.60;;
4754;SDS011;2391;47.212;7.542;2024-03-25T01:21:36;4.37;;;0.70;;
4754;SDS011;2391;47.212;7.542;2024-03-25T01:24:02;0.60;;;0.50;;
4754;SDS011;2391;47.212;7.542;2024-03-25T01:26:28;1.90;;;0.73;;
4754;SDS011;2391;47.212;7.542;2024-03-25T01:28:54;0.60;;;0.60;;
4754;SDS011;2391;47.212;7.542;2024-03-25T01:31:20;0.50;;;0.50;;
4754;SDS011;2391;47.212;7.542;2024-03-25T01:33:45;2.73;;;0.70;;
4754;SDS011;2391;47.212;7.542;2024-03-25T01:36:11;0.83;;;0.70;;
4754;SDS011;2391;47.212;7.542;2024-03-25T01:38:39;0.63;;;0.63;;
4754;SDS011;2391;47.212;7.542;2024-03-25T01:41:11;0.50;;;0.50;;
4754;SDS011;2391;47.212;7.542;2024-03-25T01:43:40;1.47;;;0.67;;
4754;SDS011;2391;47.212;7.542;2024-03-25T01:46:06;0.70;;;0.70;;
4754;SDS011;2391;47.212;7.542;2024-03-25T01:48:32;1.87;;;0.73;;
4754;SDS011;2391;47.212;7.542;2024-03-25T01:50:58;1.27;;;0.60;;
4754;SDS011;2391;47.212;7.542;2024-03-25T01:53:25;2.70;;;0.70;;
4754;SDS011;2391;47.212;7.542;2024-03-25T01:55:55;0.97;;;0.60;;
4754;SDS011;2391;47.212;7.542;2024-03-25T01:58:22;1.73;;;0.60;;
4754;SDS011;2391;47.212;7.542;2024-03-25T02:00:51;0.80;;;0.80;;
4754;SDS011;2391;47.212;7.542;2024-03-25T02:03:19;1.40;;;0.73;;
4754;SDS011;2391;47.212;7.542;2024-03-25T02:05:45;1.60;;;0.70;;
4754;SDS011;2391;47.212;7.542;2024-03-25T02:08:11;0.83;;;0.70;;
4754;SDS011;2391;47.212;7.542;2024-03-25T02:10:38;2.77;;;0.80;;
4754;SDS011;2391;47.212;7.542;2024-03-25T02:13:04;0.97;;;0.60;;
4754;SDS011;2391;47.212;7.542;2024-03-25T02:15:32;0.60;;;0.60;;
4754;SDS011;2391;47.212;7.542;2024-03-25T02:18:00;1.20;;;1.10;;
4754;SDS011;2391;47.212;7.542;2024-03-25T02:20:30;0.60;;;0.60;;
4754;SDS011;2391;47.212;7.542;2024-03-25T02:22:54;2.13;;;0.70;;
4754;SDS011;2391;47.212;7.542;2024-03-25T02:25:20;1.23;;;0.53;;
4754;SDS011;2391;47.212;7.542;2024-03-25T02:27:49;0.70;;;0.70;;
4754;SDS011;2391;47.212;7.542;2024-03-25T02:30:17;0.83;;;0.60;;
4754;SDS011;2391;47.212;7.542;2024-03-25T02:32:43;1.83;;;0.77;;
4754;SDS011;2391;47.212;7.542;2024-03-25T02:35:09;4.03;;;0.67;;
4754;SDS011;2391;47.212;7.542;2024-03-25T02:37:38;4.33;;;1.07;;
4754;SDS011;2391;47.212;7.542;2024-03-25T02:40:05;0.80;;;0.70;;
4754;SDS011;2391;47.212;7.542;2024-03-25T02:42:35;0.83;;;0.77;;
4754;SDS011;2391;47.212;7.542;2024-03-25T02:45:03;2.40;;;0.57;;
4754;SDS011;2391;47.212;7.542;2024-03-25T02:47:30;2.50;;;0.80;;
4754;SDS011;2391;47.212;7.542;2024-03-25T02:49:56;1.13;;;0.70;;
4754;SDS011;2391;47.212;7.542;2024-03-25T02:52:22;2.33;;;0.63;;
4754;SDS011;2391;47.212;7.542;2024-03-25T02:54:48;0.87;;;0.70;;
4754;SDS011;2391;47.212;7.542;2024-03-25T02:57:14;1.33;;;0.60;;
4754;SDS011;2391;47.212;7.542;2024-03-25T02:59:39;1.57;;;0.90;;
4754;SDS011;2391;47.212;7.542;2024-03-25T03:02:05;3.13;;;0.70;;
4754;SDS011;2391;47.212;7.542;2024-03-25T03:04:31;1.00;;;0.67;;
4754;SDS011;2391;47.212;7.542;2024-03-25T03:06:58;0.67;;;0.60;;
4754;SDS011;2391;47.212;7.542;2024-03-25T03:09:24;0.83;;;0.47;;
4754;SDS011;2391;47.212;7.542;2024-03-25T03:11:50;0.90;;;0.60;;
4754;SDS011;2391;47.212;7.542;2024-03-25T03:14:16;1.13;;;0.60;;
4754;SDS011;2391;47.212;7.542;2024-03-25T03:16:42;1.63;;;0.60;;
4754;SDS011;2391;47.212;7.542;2024-03-25T03:19:08;1.60;;;0.70;;
4754;SDS011;2391;47.212;7.542;2024-03-25T03:21:34;0.60;;;0.60;;
4754;SDS011;2391;47.212;7.542;2024-03-25T03:24:01;0.60;;;0.60;;
4754;SDS011;2391;47.212;7.542;2024-03-25T03:26:28;1.90;;;0.67;;
4754;SDS011;2391;47.212;7.542;2024-03-25T03:28:53;3.50;;;1.20;;
4754;SDS011;2391;47.212;7.542;2024-03-25T03:31:20;1.30;;;0.70;;
4754;SDS011;2391;47.212;7.542;2024-03-25T03:33:49;2.00;;;0.70;;
4754;SDS011;2391;47.212;7.542;2024-03-25T03:36:15;0.47;;;0.47;;
4754;SDS011;2391;47.212;7.542;2024-03-25T03:38:42;0.97;;;0.70;;
4754;SDS011;2391;47.212;7.542;2024-03-25T03:41:08;0.90;;;0.70;;
4754;SDS011;2391;47.212;7.542;2024-03-25T03:43:34;0.67;;;0.67;;
4754;SDS011;2391;47.212;7.542;2024-03-25T03:46:02;0.70;;;0.60;;
4754;SDS011;2391;47.212;7.542;2024-03-25T03:48:29;0.80;;;0.70;;
4754;SDS011;2391;47.212;7.542;2024-03-25T03:50:55;0.70;;;0.70;;
4754;SDS011;2391;47.212;7.542;2024-03-25T03:53:21;0.60;;;0.60;;
4754;SDS011;2391;47.212;7.542;2024-03-25T03:55:56;0.70;;;0.53;;
4754;SDS011;2391;47.212;7.542;2024-03-25T03:58:23;1.17;;;0.77;;
4754;SDS011;2391;47.212;7.542;2024-03-25T04:00:50;1.13;;;0.70;;
4754;SDS011;2391;47.212;7.542;2024-03-25T04:03:17;1.07;;;0.80;;
4754;SDS011;2391;47.212;7.542;2024-03-25T04:05:43;1.20;;;0.70;;
4754;SDS011;2391;47.212;7.542;2024-03-25T04:08:09;1.03;;;0.60;;
4754;SDS011;2391;47.212;7.542;2024-03-25T04:10:37;0.50;;;0.50;;
4754;SDS011;2391;47.212;7.542;2024-03-25T04:13:03;2.23;;;0.60;;
4754;SDS011;2391;47.212;7.542;2024-03-25T04:15:35;0.97;;;0.73;;
4754;SDS011;2391;47.212;7.542;2024-03-25T04:18:02;0.97;;;0.60;;
4754;SDS011;2391;47.212;7.542;2024-03-25T04:20:29;0.97;;;0.70;;
4754;SDS011;2391;47.212;7.542;2024-03-25T04:22:57;1.57;;;0.70;;
4754;SDS011;2391;47.212;7.542;2024-03-25T04:25:25;0.47;;;0.47;;
4754;SDS011;2391;47.212;7.542;2024-03-25T04:27:51;3.90;;;0.80;;
4754;SDS011;2391;47.212;7.542;2024-03-25T04:30:17;1.10;;;0.60;;
4754;SDS011;2391;47.212;7.542;2024-03-25T04:32:43;1.23;;;0.70;;
4754;SDS011;2391;47.212;7.542;2024-03-25T04:35:09;1.47;;;0.80;;
4754;SDS011;2391;47.212;7.542;2024-03-25T04:37:37;3.53;;;0.60;;
4754;SDS011;2391;47.212;7.542;2024-03-25T04:40:02;2.37;;;0.60;;
4754;SDS011;2391;47.212;7.542;2024-03-25T04:42:28;0.70;;;0.70;;
4754;SDS011;2391;47.212;7.542;2024-03-25T04:44:54;0.70;;;0.70;;
4754;SDS011;2391;47.212;7.542;2024-03-25T04:47:20;1.67;;;0.60;;
4754;SDS011;2391;47.212;7.542;2024-03-25T04:49:46;12.57;;;0.77;;
4754;SDS011;2391;47.212;7.542;2024-03-25T04:52:14;1.40;;;0.70;;
4754;SDS011;2391;47.212;7.542;2024-03-25T04:54:47;1.60;;;0.77;;
4754;SDS011;2391;47.212;7.542;2024-03-25T04:57:13;1.17;;;0.50;;
4754;SDS011;2391;47.212;7.542;2024-03-25T04:59:39;0.70;;;0.70;;
4754;SDS011;2391;47.212;7.542;2024-03-25T05:02:05;0.83;;;0.60;;
4754;SDS011;2391;47.212;7.542;2024-03-25T05:04:31;0.60;;;0.60;;
4754;SDS011;2391;47.212;7.542;2024-03-25T05:06:57;0.60;;;0.60;;
4754;SDS011;2391;47.212;7.542;2024-03-25T05:09:23;0.47;;;0.47;;
4754;SDS011;2391;47.212;7.542;2024-03-25T05:11:51;0.70;;;0.70;;
4754;SDS011;2391;47.212;7.542;2024-03-25T05:14:16;0.83;;;0.50;;
4754;SDS011;2391;47.212;7.542;2024-03-25T05:16:47;1.67;;;0.73;;
4754;SDS011;2391;47.212;7.542;2024-03-25T05:19:10;0.70;;;0.60;;
4754;SDS011;2391;47.212;7.542;2024-03-25T05:21:36;1.37;;;1.03;;
4754;SDS011;2391;47.212;7.542;2024-03-25T05:24:04;0.50;;;0.50;;
4754;SDS011;2391;47.212;7.542;2024-03-25T05:26:30;3.70;;;0.70;;
4754;SDS011;2391;47.212;7.542;2024-03-25T05:28:56;1.13;;;0.70;;
4754;SDS011;2391;47.212;7.542;2024-03-25T05:31:22;2.77;;;0.87;;
4754;SDS011;2391;47.212;7.542;2024-03-25T05:33:49;0.67;;;0.60;;
4754;SDS011;2391;47.212;7.542;2024-03-25T05:36:16;1.43;;;0.50;;
4754;SDS011;2391;47.212;7.542;2024-03-25T05:38:42;0.77;;;0.60;;
4754;SDS011;2391;47.212;7.542;2024-03-25T05:41:09;0.50;;;0.50;;
4754;SDS011;2391;47.212;7.542;2024-03-25T05:43:35;1.97;;;0.60;;
4754;SDS011;2391;47.212;7.542;2024-03-25T05:46:02;1.50;;;0.93;;
4754;SDS011;2391;47.212;7.542;2024-03-25T05:48:28;2.90;;;0.73;;
4754;SDS011;2391;47.212;7.542;2024-03-25T05:53:30;0.97;;;0.87;;
4754;SDS011;2391;47.212;7.542;2024-03-25T05:55:56;2.20;;;0.70;;
4754;SDS011;2391;47.212;7.542;2024-03-25T05:58:24;5.23;;;0.90;;
4754;SDS011;2391;47.212;7.542;2024-03-25T06:00:50;1.63;;;0.80;;
4754;SDS011;2391;47.212;7.542;2024-03-25T06:03:16;0.80;;;0.80;;
4754;SDS011;2391;47.212;7.542;2024-03-25T06:05:42;1.10;;;1.00;;
4754;SDS011;2391;47.212;7.542;2024-03-25T06:08:09;1.13;;;0.80;;
4754;SDS011;2391;47.212;7.542;2024-03-25T06:10:37;0.80;;;0.80;;
4754;SDS011;2391;47.212;7.542;2024-03-25T06:13:03;5.07;;;0.80;;
4754;SDS011;2391;47.212;7.542;2024-03-25T06:15:29;1.40;;;0.90;;
4754;SDS011;2391;47.212;7.542;2024-03-25T06:17:55;1.30;;;0.90;;
4754;SDS011;2391;47.212;7.542;2024-03-25T06:20:21;2.90;;;1.00;;
4754;SDS011;2391;47.212;7.542;2024-03-25T06:22:46;2.60;;;1.13;;
4754;SDS011;2391;47.212;7.542;2024-03-25T06:25:12;2.30;;;0.90;;
4754;SDS011;2391;47.212;7.542;2024-03-25T06:27:38;1.00;;;1.00;;
4754;SDS011;2391;47.212;7.542;2024-03-25T06:30:04;0.80;;;0.80;;
4754;SDS011;2391;47.212;7.542;2024-03-25T06:32:49;1.00;;;0.83;;
4754;SDS011;2391;47.212;7.542;2024-03-25T06:35:34;1.43;;;1.10;;
4754;SDS011;2391;47.212;7.542;2024-03-25T06:37:59;1.87;;;1.23;;
4754;SDS011;2391;47.212;7.542;2024-03-25T06:40:25;0.83;;;0.83;;
4754;SDS011;2391;47.212;7.542;2024-03-25T06:42:51;6.03;;;1.00;;
4754;SDS011;2391;47.212;7.542;2024-03-25T06:45:17;1.40;;;1.00;;
4754;SDS011;2391;47.212;7.542;2024-03-25T06:47:43;0.90;;;0.90;;
4754;SDS011;2391;47.212;7.542;2024-03-25T06:50:09;1.97;;;0.93;;
4754;SDS011;2391;47.212;7.542;2024-03-25T06:52:35;1.73;;;0.80;;
4754;SDS011;2391;47.212;7.542;2024-03-25T06:55:01;1.80;;;0.90;;
4754;SDS011;2391;47.212;7.542;2024-03-25T06:57:27;1.00;;;1.00;;
4754;SDS011;2391;47.212;7.542;2024-03-25T06:59:53;1.30;;;0.90;;
4754;SDS011;2391;47.212;7.542;2024-03-25T07:02:19;0.97;;;0.90;;
4754;SDS011;2391;47.212;7.542;2024-03-25T07:04:46;1.23;;;1.13;;
4754;SDS011;2391;47.212;7.542;2024-03-25T07:07:12;1.10;;;1.00;;
4754;SDS011;2391;47.212;7.542;2024-03-25T07:09:38;2.03;;;1.10;;
4754;SDS011;2391;47.212;7.542;2024-03-25T07:12:04;1.20;;;0.90;;
4754;SDS011;2391;47.212;7.542;2024-03-25T07:14:30;2.37;;;1.03;;
4754;SDS011;2391;47.212;7.542;2024-03-25T07:16:56;1.03;;;0.93;;
4754;SDS011;2391;47.212;7.542;2024-03-25T07:19:22;2.40;;;1.10;;
4754;SDS011;2391;47.212;7.542;2024-03-25T07:21:48;2.53;;;0.90;;
4754;SDS011;2391;47.212;7.542;2024-03-25T07:24:14;2.97;;;1.30;;
4754;SDS011;2391;47.212;7.542;2024-03-25T07:26:40;1.93;;;1.00;;
4754;SDS011;2391;47.212;7.542;2024-03-25T07:29:06;1.67;;;0.90;;
4754;SDS011;2391;47.212;7.542;2024-03-25T07:31:32;1.87;;;1.10;;
4754;SDS011;2391;47.212;7.542;2024-03-25T07:33:57;1.87;;;1.27;;
4754;SDS011;2391;47.212;7.542;2024-03-25T07:36:23;4.43;;;1.30;;
4754;SDS011;2391;47.212;7.542;2024-03-25T07:38:49;4.03;;;1.10;;
4754;SDS011;2391;47.212;7.542;2024-03-25T07:41:15;1.77;;;1.00;;
4754;SDS011;2391;47.212;7.542;2024-03-25T07:43:41;1.13;;;0.90;;
4754;SDS011;2391;47.212;7.542;2024-03-25T07:46:06;1.33;;;1.00;;
4754;SDS011;2391;47.212;7.542;2024-03-25T07:48:32;1.77;;;1.20;;
4754;SDS011;2391;47.212;7.542;2024-03-25T07:50:58;1.80;;;0.90;;
4754;SDS011;2391;47.212;7.542;2024-03-25T07:53:25;1.83;;;0.80;;
4754;SDS011;2391;47.212;7.542;2024-03-25T07:55:51;1.97;;;0.90;;
4754;SDS011;2391;47.212;7.542;2024-03-25T07:58:16;5.10;;;1.00;;
4754;SDS011;2391;47.212;7.542;2024-03-25T08:00:42;0.97;;;0.90;;
4754;SDS011;2391;47.212;7.542;2024-03-25T08:03:08;3.87;;;1.00;;
4754;SDS011;2391;47.212;7.542;2024-03-25T08:05:34;2.20;;;1.00;;
4754;SDS011;2391;47.212;7.542;2024-03-25T08:07:59;1.63;;;1.10;;
4754;SDS011;2391;47.212;7.542;2024-03-25T08:10:25;0.90;;;0.80;;
4754;SDS011;2391;47.212;7.542;2024-03-25T08:12:51;1.20;;;1.00;;
4754;SDS011;2391;47.212;7.542;2024-03-25T08:15:17;2.87;;;0.90;;
4754;SDS011;2391;47.212;7.542;2024-03-25T08:17:43;2.33;;;1.10;;
4754;SDS011;2391;47.212;7.542;2024-03-25T08:20:09;1.30;;;1.20;;
4754;SDS011;2391;47.212;7.542;2024-03-25T08:22:35;2.37;;;1.10;;
4754;SDS011;2391;47.212;7.542;2024-03-25T08:25:00;1.60;;;0.97;;
4754;SDS011;2391;47.212;7.542;2024-03-25T08:27:26;1.70;;;1.03;;
4754;SDS011;2391;47.212;7.542;2024-03-25T08:29:52;2.53;;;1.10;;
4754;SDS011;2391;47.212;7.542;2024-03-25T08:32:19;3.70;;;1.23;;
4754;SDS011;2391;47.212;7.542;2024-03-25T08:34:45;3.63;;;1.40;;
4754;SDS011;2391;47.212;7.542;2024-03-25T08:37:11;1.83;;;1.00;;
4754;SDS011;2391;47.212;7.542;2024-03-25T08:39:37;2.90;;;1.30;;
4754;SDS011;2391;47.212;7.542;2024-03-25T08:42:03;1.53;;;1.00;;
4754;SDS011;2391;47.212;7.542;2024-03-25T08:44:29;1.00;;;0.83;;
4754;SDS011;2391;47.212;7.542;2024-03-25T08:46:55;6.33;;;1.07;;
4754;SDS011;2391;47.212;7.542;2024-03-25T08:49:20;2.40;;;1.07;;
4754;SDS011;2391;47.212;7.542;2024-03-25T08:51:46;3.37;;;1.63;;
4754;SDS011;2391;47.212;7.542;2024-03-25T08:54:12;1.37;;;1.03;;
4754;SDS011;2391;47.212;7.542;2024-03-25T08:56:38;8.97;;;0.97;;
4754;SDS011;2391;47.212;7.542;2024-03-25T08:59:04;3.90;;;1.00;;
4754;SDS011;2391;47.212;7.542;2024-03-25T09:01:31;3.97;;;1.40;;
4754;SDS011;2391;47.212;7.542;2024-03-25T09:03:57;4.10;;;0.90;;
4754;SDS011;2391;47.212;7.542;2024-03-25T09:06:23;2.70;;;1.10;;
4754;SDS011;2391;47.212;7.542;2024-03-25T09:08:48;3.63;;;1.27;;
4754;SDS011;2391;47.212;7.542;2024-03-25T09:11:33;1.67;;;0.80;;
4754;SDS011;2391;47.212;7.542;2024-03-25T09:13:58;2.27;;;1.00;;
4754;SDS011;2391;47.212;7.542;2024-03-25T09:16:24;3.40;;;1.00;;
4754;SDS011;2391;47.212;7.542;2024-03-25T09:18:50;2.73;;;1.10;;
4754;SDS011;2391;47.212;7.542;2024-03-25T09:21:16;1.63;;;1.00;;
4754;SDS011;2391;47.212;7.542;2024-03-25T09:23:41;1.23;;;1.13;;
4754;SDS011;2391;47.212;7.542;2024-03-25T09:26:07;1.10;;;0.80;;
4754;SDS011;2391;47.212;7.542;2024-03-25T09:28:33;2.00;;;0.90;;
4754;SDS011;2391;47.212;7.542;2024-03-25T09:30:59;2.60;;;1.10;;
4754;SDS011;2391;47.212;7.542;2024-03-25T09:33:24;2.60;;;1.17;;
4754;SDS011;2391;47.212;7.542;2024-03-25T09:35:50;2.53;;;1.07;;
4754;SDS011;2391;47.212;7.542;2024-03-25T09:38:16;1.43;;;0.90;;
4754;SDS011;2391;47.212;7.542;2024-03-25T09:40:42;2.50;;;1.23;;
4754;SDS011;2391;47.212;7.542;2024-03-25T09:43:16;2.33;;;1.10;;
4754;SDS011;2391;47.212;7.542;2024-03-25T09:45:41;1.90;;;1.00;;
4754;SDS011;2391;47.212;7.542;2024-03-25T09:48:09;1.13;;;0.77;;
4754;SDS011;2391;47.212;7.542;2024-03-25T09:50:35;3.50;;;1.07;;
4754;SDS011;2391;47.212;7.542;2024-03-25T09:53:02;0.90;;;0.90;;
4754;SDS011;2391;47.212;7.542;2024-03-25T09:55:29;1.17;;;0.93;;
4754;SDS011;2391;47.212;7.542;2024-03-25T09:57:55;5.93;;;1.23;;
4754;SDS011;2391;47.212;7.542;2024-03-25T10:00:22;1.23;;;0.90;;
4754;SDS011;2391;47.212;7.542;2024-03-25T10:02:49;0.90;;;0.90;;
4754;SDS011;2391;47.212;7.542;2024-03-25T10:05:15;0.90;;;0.90;;
4754;SDS011;2391;47.212;7.542;2024-03-25T10:07:41;1.43;;;1.00;;
4754;SDS011;2391;47.212;7.542;2024-03-25T10:10:07;1.47;;;0.90;;
4754;SDS011;2391;47.212;7.542;2024-03-25T10:12:35;2.00;;;1.10;;
4754;SDS011;2391;47.212;7.542;2024-03-25T10:15:01;2.10;;;1.20;;
4754;SDS011;2391;47.212;7.542;2024-03-25T10:17:29;1.30;;;1.13;;
4754;SDS011;2391;47.212;7.542;2024-03-25T10:19:58;2.93;;;0.90;;
4754;SDS011;2391;47.212;7.542;2024-03-25T10:22:24;1.97;;;1.30;;
4754;SDS011;2391;47.212;7.542;2024-03-25T10:24:49;3.93;;;1.00;;
4754;SDS011;2391;47.212;7.542;2024-03-25T10:29:48;1.63;;;1.10;;
4754;SDS011;2391;47.212;7.542;2024-03-25T10:32:16;2.40;;;1.10;;
4754;SDS011;2391;47.212;7.542;2024-03-25T10:34:41;1.20;;;1.10;;
4754;SDS011;2391;47.212;7.542;2024-03-25T10:37:08;1.53;;;1.20;;
4754;SDS011;2391;47.212;7.542;2024-03-25T10:39:48;4.63;;;0.97;;
4754;SDS011;2391;47.212;7.542;2024-03-25T10:42:19;1.43;;;1.07;;
4754;SDS011;2391;47.212;7.542;2024-03-25T10:44:45;6.00;;;1.00;;
4754;SDS011;2391;47.212;7.542;2024-03-25T10:47:25;2.30;;;1.00;;
4754;SDS011;2391;47.212;7.542;2024-03-25T10:49:57;1.00;;;0.90;;
4754;SDS011;2391;47.212;7.542;2024-03-25T10:52:25;1.47;;;1.00;;
4754;SDS011;2391;47.212;7.542;2024-03-25T10:54:54;1.90;;;0.93;;
4754;SDS011;2391;47.212;7.542;2024-03-25T10:57:21;1.63;;;0.80;;
4754;SDS011;2391;47.212;7.542;2024-03-25T10:59:48;1.40;;;1.00;;
4754;SDS011;2391;47.212;7.542;2024-03-25T11:02:14;2.20;;;1.07;;
4754;SDS011;2391;47.212;7.542;2024-03-25T11:04:43;1.10;;;1.00;;
4754;SDS011;2391;47.212;7.542;2024-03-25T11:07:10;1.43;;;1.20;;
4754;SDS011;2391;47.212;7.542;2024-03-25T11:09:38;1.70;;;1.00;;
4754;SDS011;2391;47.212;7.542;2024-03-25T11:12:04;3.23;;;1.00;;
4754;SDS011;2391;47.212;7.542;2024-03-25T11:14:31;2.77;;;1.10;;
4754;SDS011;2391;47.212;7.542;2024-03-25T11:17:01;2.20;;;1.20;;
4754;SDS011;2391;47.212;7.542;2024-03-25T11:19:28;1.77;;;1.20;;
4754;SDS011;2391;47.212;7.542;2024-03-25T11:22:06;1.23;;;0.80;;
4754;SDS011;2391;47.212;7.542;2024-03-25T11:24:34;1.87;;;1.10;;
4754;SDS011;2391;47.212;7.542;2024-03-25T11:27:02;7.43;;;1.10;;
4754;SDS011;2391;47.212;7.542;2024-03-25T11:29:28;1.00;;;0.90;;
4754;SDS011;2391;47.212;7.542;2024-03-25T11:31:55;1.30;;;0.90;;
4754;SDS011;2391;47.212;7.542;2024-03-25T11:34:27;1.87;;;1.20;;
4754;SDS011;2391;47.212;7.542;2024-03-25T11:36:52;1.93;;;0.90;;
4754;SDS011;2391;47.212;7.542;2024-03-25T11:39:20;1.40;;;0.93;;
4754;SDS011;2391;47.212;7.542;2024-03-25T11:41:46;0.87;;;0.87;;
4754;SDS011;2391;47.212;7.542;2024-03-25T11:44:12;1.60;;;1.10;;
4754;SDS011;2391;47.212;7.542;2024-03-25T11:46:38;3.93;;;1.37;;
4754;SDS011;2391;47.212;7.542;2024-03-25T11:49:11;1.27;;;0.90;;
4754;SDS011;2391;47.212;7.542;2024-03-25T11:51:42;1.63;;;1.30;;
4754;SDS011;2391;47.212;7.542;2024-03-25T11:54:07;0.90;;;0.90;;
4754;SDS011;2391;47.212;7.542;2024-03-25T11:56:34;6.73;;;1.40;;
4754;SDS011;2391;47.212;7.542;2024-03-25T11:59:00;1.33;;;1.00;;
4754;SDS011;2391;47.212;7.542;2024-03-25T12:01:26;2.03;;;1.20;;
4754;SDS011;2391;47.212;7.542;2024-03-25T12:03:52;1.67;;;1.13;;
4754;SDS011;2391;47.212;7.542;2024-03-25T12:06:18;8.80;;;1.07;;
4754;SDS011;2391;47.212;7.542;2024-03-25T12:08:44;2.80;;;0.90;;
4754;SDS011;2391;47.212;7.542;2024-03-25T12:11:12;0.97;;;0.80;;
4754;SDS011;2391;47.212;7.542;2024-03-25T12:13:44;1.70;;;0.90;;
4754;SDS011;2391;47.212;7.542;2024-03-25T12:16:13;0.93;;;0.60;;
4754;SDS011;2391;47.212;7.542;2024-03-25T12:18:39;2.90;;;0.90;;
4754;SDS011;2391;47.212;7.542;2024-03-25T12:21:08;2.60;;;0.77;;
4754;SDS011;2391;47.212;7.542;2024-03-25T12:23:34;1.80;;;0.90;;
4754;SDS011;2391;47.212;7.542;2024-03-25T12:26:00;0.83;;;0.80;;
4754;SDS011;2391;47.212;7.542;2024-03-25T12:28:27;2.17;;;0.70;;
4754;SDS011;2391;47.212;7.542;2024-03-25T12:30:53;2.20;;;0.90;;
4754;SDS011;2391;47.212;7.542;2024-03-25T12:33:22;1.80;;;0.80;;
4754;SDS011;2391;47.212;7.542;2024-03-25T12:35:49;4.37;;;1.10;;
4754;SDS011;2391;47.212;7.542;2024-03-25T12:38:25;2.00;;;0.80;;
4754;SDS011;2391;47.212;7.542;2024-03-25T12:40:53;1.40;;;0.70;;
4754;SDS011;2391;47.212;7.542;2024-03-25T12:43:20;1.33;;;0.80;;
4754;SDS011;2391;47.212;7.542;2024-03-25T12:45:46;1.20;;;1.10;;
4754;SDS011;2391;47.212;7.542;2024-03-25T12:48:12;1.27;;;0.80;;
4754;SDS011;2391;47.212;7.542;2024-03-25T12:50:38;5.30;;;0.70;;
4754;SDS011;2391;47.212;7.542;2024-03-25T12:53:05;0.77;;;0.77;;
4754;SDS011;2391;47.212;7.542;2024-03-25T12:55:31;1.33;;;0.73;;
4754;SDS011;2391;47.212;7.542;2024-03-25T12:57:57;0.80;;;0.70;;
4754;SDS011;2391;47.212;7.542;2024-03-25T13:00:23;0.87;;;0.70;;
4754;SDS011;2391;47.212;7.542;2024-03-25T13:02:49;0.87;;;0.87;;
4754;SDS011;2391;47.212;7.542;2024-03-25T13:05:16;1.10;;;1.00;;
4754;SDS011;2391;47.212;7.542;2024-03-25T13:07:41;2.67;;;0.93;;
4754;SDS011;2391;47.212;7.542;2024-03-25T13:10:07;0.87;;;0.80;;
4754;SDS011;2391;47.212;7.542;2024-03-25T13:12:34;2.20;;;0.60;;
4754;SDS011;2391;47.212;7.542;2024-03-25T13:15:00;1.83;;;0.70;;
4754;SDS011;2391;47.212;7.542;2024-03-25T13:17:26;1.30;;;0.70;;
4754;SDS011;2391;47.212;7.542;2024-03-25T13:19:51;0.70;;;0.70;;
4754;SDS011;2391;47.212;7.542;2024-03-25T13:22:17;0.70;;;0.70;;
4754;SDS011;2391;47.212;7.542;2024-03-25T13:24:43;1.97;;;0.67;;
4754;SDS011;2391;47.212;7.542;2024-03-25T13:27:09;0.63;;;0.60;;
4754;SDS011;2391;47.212;7.542;2024-03-25T13:29:34;2.53;;;0.80;;
4754;SDS011;2391;47.212;7.542;2024-03-25T13:32:02;2.10;;;1.00;;
4754;SDS011;2391;47.212;7.542;2024-03-25T13:34:28;1.67;;;0.70;;
4754;SDS011;2391;47.212;7.542;2024-03-25T13:36:55;0.80;;;0.60;;
4754;SDS011;2391;47.212;7.542;2024-03-25T13:39:20;0.70;;;0.70;;
4754;SDS011;2391;47.212;7.542;2024-03-25T13:41:46;3.33;;;0.80;;
4754;SDS011;2391;47.212;7.542;2024-03-25T13:44:12;0.70;;;0.60;;
4754;SDS011;2391;47.212;7.542;2024-03-25T13:46:38;0.60;;;0.60;;
4754;SDS011;2391;47.212;7.542;2024-03-25T13:49:04;0.60;;;0.60;;
4754;SDS011;2391;47.212;7.542;2024-03-25T13:51:30;2.43;;;0.80;;
4754;SDS011;2391;47.212;7.542;2024-03-25T13:53:56;2.73;;;0.50;;
4754;SDS011;2391;47.212;7.542;2024-03-25T13:56:22;0.93;;;0.67;;
4754;SDS011;2391;47.212;7.542;2024-03-25T13:58:47;0.80;;;0.57;;
4754;SDS011;2391;47.212;7.542;2024-03-25T14:01:13;1.80;;;0.60;;
4754;SDS011;2391;47.212;7.542;2024-03-25T14:03:40;0.60;;;0.57;;
4754;SDS011;2391;47.212;7.542;2024-03-25T14:06:06;0.50;;;0.50;;
4754;SDS011;2391;47.212;7.542;2024-03-25T14:08:32;1.43;;;0.70;;
4754;SDS011;2391;47.212;7.542;2024-03-25T14:10:58;2.90;;;0.90;;
4754;SDS011;2391;47.212;7.542;2024-03-25T14:13:25;1.47;;;0.70;;
4754;SDS011;2391;47.212;7.542;2024-03-25T14:15:51;0.70;;;0.70;;
4754;SDS011;2391;47.212;7.542;2024-03-25T14:18:17;0.57;;;0.57;;
4754;SDS011;2391;47.212;7.542;2024-03-25T14:20:43;0.80;;;0.70;;
4754;SDS011;2391;47.212;7.542;2024-03-25T14:23:09;0.60;;;0.60;;
4754;SDS011;2391;47.212;7.542;2024-03-25T14:25:37;2.00;;;0.70;;
4754;SDS011;2391;47.212;7.542;2024-03-25T14:28:03;1.43;;;0.60;;
4754;SDS011;2391;47.212;7.542;2024-03-25T14:30:29;1.90;;;0.80;;
4754;SDS011;2391;47.212;7.542;2024-03-25T14:32:55;0.73;;;0.60;;
4754;SDS011;2391;47.212;7.542;2024-03-25T14:35:21;0.60;;;0.60;;
4754;SDS011;2391;47.212;7.542;2024-03-25T14:37:47;1.43;;;0.67;;
4754;SDS011;2391;47.212;7.542;2024-03-25T14:40:14;3.43;;;0.73;;
4754;SDS011;2391;47.212;7.542;2024-03-25T14:42:42;1.37;;;0.70;;
4754;SDS011;2391;47.212;7.542;2024-03-25T14:45:09;2.00;;;0.70;;
4754;SDS011;2391;47.212;7.542;2024-03-25T14:47:34;1.10;;;0.80;;
4754;SDS011;2391;47.212;7.542;2024-03-25T14:50:00;1.20;;;1.10;;
4754;SDS011;2391;47.212;7.542;2024-03-25T14:52:26;2.60;;;1.07;;
4754;SDS011;2391;47.212;7.542;2024-03-25T14:54:52;0.80;;;0.80;;
4754;SDS011;2391;47.212;7.542;2024-03-25T14:57:18;1.73;;;0.80;;
4754;SDS011;2391;47.212;7.542;2024-03-25T14:59:43;3.50;;;1.00;;
4754;SDS011;2391;47.212;7.542;2024-03-25T15:02:09;2.10;;;0.80;;
4754;SDS011;2391;47.212;7.542;2024-03-25T15:04:37;0.70;;;0.67;;
4754;SDS011;2391;47.212;7.542;2024-03-25T15:07:03;3.33;;;1.20;;
4754;SDS011;2391;47.212;7.542;2024-03-25T15:09:28;1.00;;;0.70;;
4754;SDS011;2391;47.212;7.542;2024-03-25T15:11:54;1.00;;;0.80;;
4754;SDS011;2391;47.212;7.542;2024-03-25T15:14:20;0.90;;;0.80;;
4754;SDS011;2391;47.212;7.542;2024-03-25T15:16:46;1.87;;;0.87;;